Mountain View, HI (96771)

10:18 PM HST on July 29, 2016 (GMT -1000)
Hawaiian Fern Acres | | Change Station

Elev 1516 ft 19.53 °N, 155.10 °W | Updated 1 second ago

Light Rain
Light Rain Mist
66.2 °F
Feels Like 66.2 °F
N
0.2
Wind Variable Wind from NNW
Gusts 2.5 mph

Today
High -- | Low -- °F
--% Chance of Precip.
Yesterday
High -- | Low -- °F
Precip. -- in
Pressure 30.03 in
Visibility 3.0 miles
Clouds Mostly Cloudy 2200 ft
Overcast 4300 ft
Dew Point 64 °F
Humidity 94%
Rainfall 0.09 in
Snow Depth Not available.
5:55 AM 6:57 PM
Waning Crescent, 15% visible
SPECI PHTO 300802Z AUTO 33004KT 3SM -RA BR BKN022 OVC043 23/22 A3003 RMK AO2 P0010 T02330217 TSNO
Pressure 30.03 in
Visibility 3.0 miles
Clouds Mostly Cloudy 2200 ft
Overcast 4300 ft
Dew Point 64 °F
Humidity 94%
Rainfall 0.09 in
Snow Depth Not available.
5:55 AM 6:57 PM
Waning Crescent, 15% visible
SPECI PHTO 300802Z AUTO 33004KT 3SM -RA BR BKN022 OVC043 23/22 A3003 RMK AO2 P0010 T02330217 TSNO

10-Day Weather Forecast

Almanac

Astronomy

Jul. 29, 2016 Rise Set
Actual Time
Civil Twilight
Nautical Twilight
Astronomical Twilight
Moon
Length of Visible Light
Length of Day
Tomorrow will be .
, % of the Moon is Illuminated

Today's Extremes

State Highs State Lows

Community

WunderPhotos

Upload Photos

1,928,508 photos uploaded!

WunderBlog® & News

Nearby

Air Quality

  Air Quality AQ Index Pollutant
Not available.

Snow Depth

Station Depth Elevation

Earthquake Activity

City Distance Mag. Time & Date
Minimum magnitude displayed is 2.5.

Coastal Water Temperatures

Place Temperature

Stations

Nearby Weather Stations

Station Location Temp. Windchill Dew Point Humidity Wind Precip. Elev Updated Type
                   

Watches & Warnings

There are currently no watches in effect.